sensor_id;sensor_type;location;lat;lon;timestamp;pressure;altitude;pressure_sealevel;temperature;humidity
70434;BME280;57876;47.792;12.960;2023-04-25T00:00:08;96204.28;;;15.00;51.81
70434;BME280;57876;47.792;12.960;2023-04-25T00:02:33;96203.50;;;14.99;51.61
70434;BME280;57876;47.792;12.960;2023-04-25T00:04:58;96204.63;;;14.98;51.46
70434;BME280;57876;47.792;12.960;2023-04-25T00:07:24;96203.00;;;14.97;51.40
70434;BME280;57876;47.792;12.960;2023-04-25T00:09:49;96194.84;;;14.97;51.75
70434;BME280;57876;47.792;12.960;2023-04-25T00:12:14;96201.09;;;14.97;51.62
70434;BME280;57876;47.792;12.960;2023-04-25T00:14:39;96203.00;;;14.97;51.54
70434;BME280;57876;47.792;12.960;2023-04-25T00:17:04;96206.56;;;14.97;51.54
70434;BME280;57876;47.792;12.960;2023-04-25T00:19:28;96199.50;;;14.96;51.49
70434;BME280;57876;47.792;12.960;2023-04-25T00:21:53;96192.78;;;14.94;51.70
70434;BME280;57876;47.792;12.960;2023-04-25T00:24:17;96196.28;;;14.94;51.55
70434;BME280;57876;47.792;12.960;2023-04-25T00:26:42;96195.97;;;14.96;51.88
70434;BME280;57876;47.792;12.960;2023-04-25T00:29:06;96192.47;;;14.95;51.70
70434;BME280;57876;47.792;12.960;2023-04-25T00:31:30;96186.22;;;14.95;51.89
70434;BME280;57876;47.792;12.960;2023-04-25T00:33:55;96186.66;;;14.97;51.52
70434;BME280;57876;47.792;12.960;2023-04-25T00:36:19;96180.78;;;14.95;51.71
70434;BME280;57876;47.792;12.960;2023-04-25T00:38:44;96178.06;;;14.95;51.79
70434;BME280;57876;47.792;12.960;2023-04-25T00:41:08;96177.72;;;14.96;51.77
70434;BME280;57876;47.792;12.960;2023-04-25T00:43:33;96172.59;;;14.95;51.57
70434;BME280;57876;47.792;12.960;2023-04-25T00:45:59;96174.50;;;14.94;51.63
70434;BME280;57876;47.792;12.960;2023-04-25T00:48:24;96169.88;;;14.95;51.63
70434;BME280;57876;47.792;12.960;2023-04-25T00:50:53;96168.75;;;14.96;51.67
70434;BME280;57876;47.792;12.960;2023-04-25T00:53:19;96169.06;;;14.94;51.89
70434;BME280;57876;47.792;12.960;2023-04-25T00:55:43;96171.00;;;14.94;51.74
70434;BME280;57876;47.792;12.960;2023-04-25T00:58:11;96163.63;;;14.94;51.54
70434;BME280;57876;47.792;12.960;2023-04-25T01:00:36;96167.16;;;14.95;51.91
70434;BME280;57876;47.792;12.960;2023-04-25T01:03:01;96169.41;;;14.93;51.64
70434;BME280;57876;47.792;12.960;2023-04-25T01:05:27;96169.06;;;14.94;51.57
70434;BME280;57876;47.792;12.960;2023-04-25T01:07:52;96157.38;;;14.94;51.65
70434;BME280;57876;47.792;12.960;2023-04-25T01:10:16;96150.34;;;14.93;51.81
70434;BME280;57876;47.792;12.960;2023-04-25T01:12:41;96161.25;;;14.93;51.95
70434;BME280;57876;47.792;12.960;2023-04-25T01:15:06;96156.59;;;14.93;51.54
70434;BME280;57876;47.792;12.960;2023-04-25T01:17:31;96157.38;;;14.94;51.66
70434;BME280;57876;47.792;12.960;2023-04-25T01:19:55;96159.63;;;14.92;51.50
70434;BME280;57876;47.792;12.960;2023-04-25T01:22:20;96161.25;;;14.93;51.44
70434;BME280;57876;47.792;12.960;2023-04-25T01:24:45;96161.25;;;14.93;51.64
70434;BME280;57876;47.792;12.960;2023-04-25T01:27:10;96154.19;;;14.92;51.60
70434;BME280;57876;47.792;12.960;2023-04-25T01:29:35;96148.72;;;14.92;51.72
70434;BME280;57876;47.792;12.960;2023-04-25T01:32:00;96151.47;;;14.92;51.64
70434;BME280;57876;47.792;12.960;2023-04-25T01:34:25;96153.38;;;14.91;51.35
70434;BME280;57876;47.792;12.960;2023-04-25T01:36:50;96146.34;;;14.90;51.56
70434;BME280;57876;47.792;12.960;2023-04-25T01:39:15;96156.13;;;14.91;51.57
70434;BME280;57876;47.792;12.960;2023-04-25T01:41:39;96152.59;;;14.91;51.64
70434;BME280;57876;47.792;12.960;2023-04-25T01:44:04;96145.56;;;14.90;51.63
70434;BME280;57876;47.792;12.960;2023-04-25T01:46:29;96146.34;;;14.90;51.74
70434;BME280;57876;47.792;12.960;2023-04-25T01:49:11;96151.00;;;14.90;51.24
70434;BME280;57876;47.792;12.960;2023-04-25T01:51:36;96144.44;;;14.91;51.45
70434;BME280;57876;47.792;12.960;2023-04-25T01:54:01;96145.56;;;14.90;51.86
70434;BME280;57876;47.792;12.960;2023-04-25T01:56:30;96147.94;;;14.91;51.73
70434;BME280;57876;47.792;12.960;2023-04-25T01:58:54;96142.06;;;14.89;51.54
70434;BME280;57876;47.792;12.960;2023-04-25T02:01:18;96143.94;;;14.89;51.43
70434;BME280;57876;47.792;12.960;2023-04-25T02:03:46;96147.50;;;14.89;51.62
70434;BME280;57876;47.792;12.960;2023-04-25T02:06:10;96137.72;;;14.88;51.66
70434;BME280;57876;47.792;12.960;2023-04-25T02:08:35;96137.59;;;14.85;51.64
70434;BME280;57876;47.792;12.960;2023-04-25T02:11:01;96145.56;;;14.90;51.49
70434;BME280;57876;47.792;12.960;2023-04-25T02:13:28;96145.41;;;14.86;51.82
70434;BME280;57876;47.792;12.960;2023-04-25T02:15:52;96139.16;;;14.86;51.50
70434;BME280;57876;47.792;12.960;2023-04-25T02:18:16;96146.69;;;14.89;51.62
70434;BME280;57876;47.792;12.960;2023-04-25T02:20:42;96138.06;;;14.87;51.32
70434;BME280;57876;47.792;12.960;2023-04-25T02:23:06;96146.22;;;14.87;51.69
70434;BME280;57876;47.792;12.960;2023-04-25T02:25:31;96147.81;;;14.88;51.29
70434;BME280;57876;47.792;12.960;2023-04-25T02:27:55;96132.63;;;14.87;51.57
70434;BME280;57876;47.792;12.960;2023-04-25T02:30:19;96137.72;;;14.88;51.64
70434;BME280;57876;47.792;12.960;2023-04-25T02:32:44;96136.44;;;14.86;51.51
70434;BME280;57876;47.792;12.960;2023-04-25T02:35:09;96139.66;;;14.88;51.64
70434;BME280;57876;47.792;12.960;2023-04-25T02:37:35;96135.66;;;14.85;51.63
70434;BME280;57876;47.792;12.960;2023-04-25T02:40:00;96136.44;;;14.86;51.69
70434;BME280;57876;47.792;12.960;2023-04-25T02:42:26;96136.13;;;14.87;51.51
70434;BME280;57876;47.792;12.960;2023-04-25T02:44:50;96136.91;;;14.88;51.68
70434;BME280;57876;47.792;12.960;2023-04-25T02:47:15;96134.50;;;14.86;51.65
70434;BME280;57876;47.792;12.960;2023-04-25T02:49:39;96129.06;;;14.86;51.86
70434;BME280;57876;47.792;12.960;2023-04-25T02:52:04;96129.91;;;14.87;51.41
70434;BME280;57876;47.792;12.960;2023-04-25T02:54:29;96117.06;;;14.87;51.59
70434;BME280;57876;47.792;12.960;2023-04-25T02:56:54;96121.72;;;14.87;51.39
70434;BME280;57876;47.792;12.960;2023-04-25T02:59:18;96125.25;;;14.87;51.54
70434;BME280;57876;47.792;12.960;2023-04-25T03:01:43;96121.72;;;14.87;51.62
70434;BME280;57876;47.792;12.960;2023-04-25T03:04:07;96120.09;;;14.86;51.45
70434;BME280;57876;47.792;12.960;2023-04-25T03:06:32;96113.56;;;14.87;51.34
70434;BME280;57876;47.792;12.960;2023-04-25T03:08:56;96113.88;;;14.85;51.59
70434;BME280;57876;47.792;12.960;2023-04-25T03:11:21;96120.91;;;14.86;51.43
70434;BME280;57876;47.792;12.960;2023-04-25T03:13:45;96114.66;;;14.86;51.60
70434;BME280;57876;47.792;12.960;2023-04-25T03:16:10;96114.66;;;14.86;51.45
70434;BME280;57876;47.792;12.960;2023-04-25T03:18:34;96111.47;;;14.84;51.82
70434;BME280;57876;47.792;12.960;2023-04-25T03:20:59;96116.59;;;14.85;51.83
70434;BME280;57876;47.792;12.960;2023-04-25T03:23:23;96121.25;;;14.85;51.66
70434;BME280;57876;47.792;12.960;2023-04-25T03:25:48;96120.09;;;14.86;51.79
70434;BME280;57876;47.792;12.960;2023-04-25T03:28:12;96114.66;;;14.86;51.60
70434;BME280;57876;47.792;12.960;2023-04-25T03:30:36;96111.47;;;14.84;51.48
70434;BME280;57876;47.792;12.960;2023-04-25T03:33:01;96123.97;;;14.85;51.49
70434;BME280;57876;47.792;12.960;2023-04-25T03:35:25;96113.09;;;14.85;51.49
70434;BME280;57876;47.792;12.960;2023-04-25T03:37:50;96115.31;;;14.83;51.68
70434;BME280;57876;47.792;12.960;2023-04-25T03:40:14;96119.63;;;14.84;51.45
70434;BME280;57876;47.792;12.960;2023-04-25T03:42:39;96117.25;;;14.82;51.46
70434;BME280;57876;47.792;12.960;2023-04-25T03:45:04;96116.91;;;14.84;51.39
70434;BME280;57876;47.792;12.960;2023-04-25T03:47:29;96111.47;;;14.84;51.49
70434;BME280;57876;47.792;12.960;2023-04-25T03:49:54;96115.81;;;14.85;51.35
70434;BME280;57876;47.792;12.960;2023-04-25T03:52:18;96094.34;;;14.83;51.54
70434;BME280;57876;47.792;12.960;2023-04-25T03:54:43;96090.81;;;14.83;51.65
70434;BME280;57876;47.792;12.960;2023-04-25T03:57:07;96097.06;;;14.83;51.54
70434;BME280;57876;47.792;12.960;2023-04-25T03:59:32;96090.81;;;14.83;51.49
70434;BME280;57876;47.792;12.960;2023-04-25T04:01:56;96101.72;;;14.83;51.68
70434;BME280;57876;47.792;12.960;2023-04-25T04:04:21;96100.91;;;14.82;51.50
70434;BME280;57876;47.792;12.960;2023-04-25T04:06:45;96090.81;;;14.83;51.13
70434;BME280;57876;47.792;12.960;2023-04-25T04:09:10;96095.47;;;14.82;51.36
70434;BME280;57876;47.792;12.960;2023-04-25T04:11:35;96100.13;;;14.82;51.46
70434;BME280;57876;47.792;12.960;2023-04-25T04:14:03;96095.47;;;14.82;51.55
70434;BME280;57876;47.792;12.960;2023-04-25T04:16:27;96109.88;;;14.83;51.74
70434;BME280;57876;47.792;12.960;2023-04-25T04:18:51;96109.41;;;14.81;51.62
70434;BME280;57876;47.792;12.960;2023-04-25T04:21:16;96115.66;;;14.81;51.67
70434;BME280;57876;47.792;12.960;2023-04-25T04:23:40;96114.84;;;14.81;51.68
70434;BME280;57876;47.792;12.960;2023-04-25T04:26:05;96112.91;;;14.81;51.51
70434;BME280;57876;47.792;12.960;2023-04-25T04:28:29;96105.56;;;14.82;51.55
70434;BME280;57876;47.792;12.960;2023-04-25T04:30:53;96093.88;;;14.81;51.64
70434;BME280;57876;47.792;12.960;2023-04-25T04:33:18;96103.97;;;14.81;51.72
70434;BME280;57876;47.792;12.960;2023-04-25T04:35:47;96102.03;;;14.81;51.75
70434;BME280;57876;47.792;12.960;2023-04-25T04:38:13;96096.94;;;14.80;51.40
70434;BME280;57876;47.792;12.960;2023-04-25T04:40:39;96099.31;;;14.81;51.68
70434;BME280;57876;47.792;12.960;2023-04-25T04:43:04;96100.13;;;14.82;51.23
70434;BME280;57876;47.792;12.960;2023-04-25T04:45:28;96105.91;;;14.80;51.79
70434;BME280;57876;47.792;12.960;2023-04-25T04:47:53;96102.03;;;14.81;51.55
70434;BME280;57876;47.792;12.960;2023-04-25T04:50:19;96104.75;;;14.81;51.52
70434;BME280;57876;47.792;12.960;2023-04-25T04:52:44;96110.19;;;14.81;51.70
70434;BME280;57876;47.792;12.960;2023-04-25T04:55:08;96114.53;;;14.82;51.31
70434;BME280;57876;47.792;12.960;2023-04-25T04:57:33;96111.03;;;14.82;51.55
70434;BME280;57876;47.792;12.960;2023-04-25T04:59:59;96110.19;;;14.81;51.48
70434;BME280;57876;47.792;12.960;2023-04-25T05:02:23;96107.47;;;14.81;51.53
70434;BME280;57876;47.792;12.960;2023-04-25T05:04:48;96110.19;;;14.81;51.37
70434;BME280;57876;47.792;12.960;2023-04-25T05:07:12;96109.41;;;14.81;51.63
70434;BME280;57876;47.792;12.960;2023-04-25T05:09:37;96105.56;;;14.82;51.58
70434;BME280;57876;47.792;12.960;2023-04-25T05:12:01;96106.69;;;14.81;51.75
70434;BME280;57876;47.792;12.960;2023-04-25T05:14:26;96104.75;;;14.81;51.68
70434;BME280;57876;47.792;12.960;2023-04-25T05:16:50;96111.03;;;14.82;51.58
70434;BME280;57876;47.792;12.960;2023-04-25T05:19:15;96113.28;;;14.80;51.09
70434;BME280;57876;47.792;12.960;2023-04-25T05:21:39;96125.75;;;14.81;51.44
70434;BME280;57876;47.792;12.960;2023-04-25T05:24:04;96131.97;;;14.81;51.56
70434;BME280;57876;47.792;12.960;2023-04-25T05:26:29;96138.25;;;14.82;51.60
70434;BME280;57876;47.792;12.960;2023-04-25T05:28:55;96143.69;;;14.82;51.13
70434;BME280;57876;47.792;12.960;2023-04-25T05:31:19;96144.78;;;14.81;51.56
70434;BME280;57876;47.792;12.960;2023-04-25T05:33:43;96144.31;;;14.79;51.70
70434;BME280;57876;47.792;12.960;2023-04-25T05:36:08;96140.16;;;14.81;51.40
70434;BME280;57876;47.792;12.960;2023-04-25T05:38:33;96144.47;;;14.82;51.60
70434;BME280;57876;47.792;12.960;2023-04-25T05:40:57;96134.38;;;14.83;51.34
70434;BME280;57876;47.792;12.960;2023-04-25T05:43:21;96130.53;;;14.84;51.39
70434;BME280;57876;47.792;12.960;2023-04-25T05:45:46;96134.38;;;14.83;51.50
70434;BME280;57876;47.792;12.960;2023-04-25T05:48:10;96125.09;;;14.84;51.65
70434;BME280;57876;47.792;12.960;2023-04-25T05:50:35;96118.06;;;14.83;51.69
70434;BME280;57876;47.792;12.960;2023-04-25T05:52:59;96119.31;;;14.85;51.47
70434;BME280;57876;47.792;12.960;2023-04-25T05:55:24;96115.81;;;14.85;51.80
70434;BME280;57876;47.792;12.960;2023-04-25T05:57:48;96115.47;;;14.86;51.38
70434;BME280;57876;47.792;12.960;2023-04-25T06:00:13;96114.66;;;14.86;51.58
70434;BME280;57876;47.792;12.960;2023-04-25T06:02:40;96106.50;;;14.86;51.30
70434;BME280;57876;47.792;12.960;2023-04-25T06:05:04;96099.47;;;14.85;51.61
70434;BME280;57876;47.792;12.960;2023-04-25T06:07:29;96108.91;;;14.87;51.37
70434;BME280;57876;47.792;12.960;2023-04-25T06:09:54;96102.97;;;14.85;51.80
70434;BME280;57876;47.792;12.960;2023-04-25T06:12:19;96110.34;;;14.85;51.45
70434;BME280;57876;47.792;12.960;2023-04-25T06:14:43;96104.25;;;14.88;51.80
70434;BME280;57876;47.792;12.960;2023-04-25T06:17:08;96102.19;;;14.85;51.80
70434;BME280;57876;47.792;12.960;2023-04-25T06:19:32;96119.00;;;14.87;51.35
70434;BME280;57876;47.792;12.960;2023-04-25T06:21:57;96117.38;;;14.86;51.55
70434;BME280;57876;47.792;12.960;2023-04-25T06:24:21;96127.97;;;14.87;51.81
70434;BME280;57876;47.792;12.960;2023-04-25T06:26:46;96135.34;;;14.87;51.54
70434;BME280;57876;47.792;12.960;2023-04-25T06:29:11;96143.81;;;14.85;51.65
70434;BME280;57876;47.792;12.960;2023-04-25T06:31:36;96145.28;;;14.83;51.82
70434;BME280;57876;47.792;12.960;2023-04-25T06:34:00;96137.09;;;14.83;51.96
70434;BME280;57876;47.792;12.960;2023-04-25T06:36:25;96137.25;;;14.86;51.65
70434;BME280;57876;47.792;12.960;2023-04-25T06:38:52;96123.63;;;14.86;51.73
70434;BME280;57876;47.792;12.960;2023-04-25T06:41:19;96129.06;;;14.86;51.99
70434;BME280;57876;47.792;12.960;2023-04-25T06:43:44;96119.31;;;14.85;51.76
70434;BME280;57876;47.792;12.960;2023-04-25T06:46:08;96117.38;;;14.86;51.57
70434;BME280;57876;47.792;12.960;2023-04-25T06:48:33;96119.00;;;14.87;51.86
70434;BME280;57876;47.792;12.960;2023-04-25T06:50:57;96106.50;;;14.86;51.96
70434;BME280;57876;47.792;12.960;2023-04-25T06:53:22;96114.00;;;14.89;51.95
70434;BME280;57876;47.792;12.960;2023-04-25T06:55:46;96102.00;;;14.90;51.67
70434;BME280;57876;47.792;12.960;2023-04-25T06:58:11;96097.34;;;14.90;52.15
70434;BME280;57876;47.792;12.960;2023-04-25T07:00:35;96095.41;;;14.91;51.61
70434;BME280;57876;47.792;12.960;2023-04-25T07:03:00;96096.22;;;14.91;51.98
70434;BME280;57876;47.792;12.960;2023-04-25T07:05:24;96089.97;;;14.91;51.80
70434;BME280;57876;47.792;12.960;2023-04-25T07:07:49;96086.47;;;14.90;51.89
70434;BME280;57876;47.792;12.960;2023-04-25T07:10:13;96095.09;;;14.92;51.86
70434;BME280;57876;47.792;12.960;2023-04-25T07:12:37;96101.34;;;14.93;51.84
70434;BME280;57876;47.792;12.960;2023-04-25T07:15:02;96102.13;;;14.93;51.84
70434;BME280;57876;47.792;12.960;2023-04-25T07:17:30;96123.13;;;14.93;51.77
70434;BME280;57876;47.792;12.960;2023-04-25T07:19:54;96114.47;;;14.91;51.60
70434;BME280;57876;47.792;12.960;2023-04-25T07:22:19;96112.09;;;14.89;52.03
70434;BME280;57876;47.792;12.960;2023-04-25T07:24:43;96106.66;;;14.89;52.12
70434;BME280;57876;47.792;12.960;2023-04-25T07:27:11;96102.00;;;14.90;51.81
70434;BME280;57876;47.792;12.960;2023-04-25T07:29:35;96092.56;;;14.87;52.08
70434;BME280;57876;47.792;12.960;2023-04-25T07:32:01;96089.50;;;14.89;51.98
70434;BME280;57876;47.792;12.960;2023-04-25T07:34:26;96091.13;;;14.90;51.94
70434;BME280;57876;47.792;12.960;2023-04-25T07:36:50;96086.47;;;14.90;52.11
70434;BME280;57876;47.792;12.960;2023-04-25T07:39:15;96083.38;;;14.92;51.88
70434;BME280;57876;47.792;12.960;2023-04-25T07:41:39;96085.00;;;14.93;51.92
70434;BME280;57876;47.792;12.960;2023-04-25T07:44:03;96072.19;;;14.93;51.83
70434;BME280;57876;47.792;12.960;2023-04-25T07:46:28;96081.16;;;14.94;51.99
70434;BME280;57876;47.792;12.960;2023-04-25T07:48:52;96072.50;;;14.92;52.04
70434;BME280;57876;47.792;12.960;2023-04-25T07:51:16;96075.22;;;14.92;51.91
70434;BME280;57876;47.792;12.960;2023-04-25T07:53:43;96075.69;;;14.94;51.75
70434;BME280;57876;47.792;12.960;2023-04-25T07:56:08;96079.69;;;14.96;51.71
70434;BME280;57876;47.792;12.960;2023-04-25T07:58:33;96067.69;;;14.97;51.73
70434;BME280;57876;47.792;12.960;2023-04-25T08:00:57;96070.84;;;15.00;51.95
70434;BME280;57876;47.792;12.960;2023-04-25T08:03:22;96075.50;;;14.99;52.08
70434;BME280;57876;47.792;12.960;2023-04-25T08:05:46;96073.91;;;14.98;51.73
70434;BME280;57876;47.792;12.960;2023-04-25T08:08:10;96068.47;;;14.98;51.83
70434;BME280;57876;47.792;12.960;2023-04-25T08:10:35;96060.44;;;15.02;51.71
70434;BME280;57876;47.792;12.960;2023-04-25T08:12:59;96060.56;;;15.05;51.76
70434;BME280;57876;47.792;12.960;2023-04-25T08:15:24;96057.50;;;15.07;51.55
70434;BME280;57876;47.792;12.960;2023-04-25T08:17:49;96061.97;;;15.11;51.47
70434;BME280;57876;47.792;12.960;2023-04-25T08:20:13;96066.28;;;15.12;51.94
70434;BME280;57876;47.792;12.960;2023-04-25T08:22:38;96064.03;;;15.14;51.96
70434;BME280;57876;47.792;12.960;2023-04-25T08:25:02;96061.31;;;15.14;51.46
70434;BME280;57876;47.792;12.960;2023-04-25T08:27:27;96055.84;;;15.14;51.73
70434;BME280;57876;47.792;12.960;2023-04-25T08:29:51;96057.13;;;15.17;52.12
70434;BME280;57876;47.792;12.960;2023-04-25T08:32:16;96065.75;;;15.19;51.56
70434;BME280;57876;47.792;12.960;2023-04-25T08:34:40;96063.84;;;15.19;51.95
70434;BME280;57876;47.792;12.960;2023-04-25T08:37:06;96055.00;;;15.23;51.79
70434;BME280;57876;47.792;12.960;2023-04-25T08:39:32;96053.84;;;15.24;51.60
70434;BME280;57876;47.792;12.960;2023-04-25T08:41:56;96043.41;;;15.26;51.69
70434;BME280;57876;47.792;12.960;2023-04-25T08:44:22;96057.41;;;15.24;51.66
70434;BME280;57876;47.792;12.960;2023-04-25T08:46:46;96044.22;;;15.26;51.76
70434;BME280;57876;47.792;12.960;2023-04-25T08:49:13;96038.75;;;15.26;51.38
70434;BME280;57876;47.792;12.960;2023-04-25T08:51:45;96052.84;;;15.28;51.60
70434;BME280;57876;47.792;12.960;2023-04-25T08:54:14;96055.59;;;15.28;51.42
70434;BME280;57876;47.792;12.960;2023-04-25T08:56:41;96059.78;;;15.26;51.47
70434;BME280;57876;47.792;12.960;2023-04-25T08:59:07;96048.09;;;15.25;51.12
70434;BME280;57876;47.792;12.960;2023-04-25T09:01:32;96052.28;;;15.23;51.38
70434;BME280;57876;47.792;12.960;2023-04-25T09:03:57;96053.72;;;15.20;51.67
70434;BME280;57876;47.792;12.960;2023-04-25T09:06:22;96056.31;;;15.16;51.54
70434;BME280;57876;47.792;12.960;2023-04-25T09:08:49;96053.94;;;15.15;51.54
70434;BME280;57876;47.792;12.960;2023-04-25T09:11:14;96074.91;;;15.14;51.50
70434;BME280;57876;47.792;12.960;2023-04-25T09:13:39;96066.28;;;15.12;51.85
70434;BME280;57876;47.792;12.960;2023-04-25T09:16:03;96078.78;;;15.13;51.90
70434;BME280;57876;47.792;12.960;2023-04-25T09:18:29;96078.78;;;15.13;51.58
70434;BME280;57876;47.792;12.960;2023-04-25T09:21:05;96091.16;;;15.11;51.63
70434;BME280;57876;47.792;12.960;2023-04-25T09:23:30;96091.16;;;15.11;51.66
70434;BME280;57876;47.792;12.960;2023-04-25T09:25:54;96093.03;;;15.10;51.20
70434;BME280;57876;47.792;12.960;2023-04-25T09:28:26;96110.53;;;15.09;51.50
70434;BME280;57876;47.792;12.960;2023-04-25T09:30:55;96109.38;;;15.10;51.88
70434;BME280;57876;47.792;12.960;2023-04-25T09:33:27;96109.72;;;15.09;51.83
70434;BME280;57876;47.792;12.960;2023-04-25T09:35:52;96111.66;;;15.08;51.89
70434;BME280;57876;47.792;12.960;2023-04-25T09:38:20;96109.72;;;15.09;51.55
70434;BME280;57876;47.792;12.960;2023-04-25T09:40:46;96107.31;;;15.07;51.69
70434;BME280;57876;47.792;12.960;2023-04-25T09:43:34;96106.22;;;15.08;51.54
70434;BME280;57876;47.792;12.960;2023-04-25T09:45:59;96113.91;;;15.06;51.53
70434;BME280;57876;47.792;12.960;2023-04-25T09:48:26;96117.75;;;15.05;51.42
70434;BME280;57876;47.792;12.960;2023-04-25T09:53:27;96128.97;;;15.04;51.47
70434;BME280;57876;47.792;12.960;2023-04-25T09:55:52;96107.06;;;15.00;51.50
70434;BME280;57876;47.792;12.960;2023-04-25T09:58:17;96115.25;;;15.00;51.73
70434;BME280;57876;47.792;12.960;2023-04-25T10:00:42;96103.53;;;15.00;51.71
70434;BME280;57876;47.792;12.960;2023-04-25T10:03:06;96109.31;;;14.98;51.75
70434;BME280;57876;47.792;12.960;2023-04-25T10:05:32;96102.25;;;14.97;51.77
70434;BME280;57876;47.792;12.960;2023-04-25T10:08:03;96090.25;;;14.98;51.50
70434;BME280;57876;47.792;12.960;2023-04-25T10:10:29;96104.97;;;14.97;51.60
70434;BME280;57876;47.792;12.960;2023-04-25T10:12:57;96095.34;;;15.00;51.83
70434;BME280;57876;47.792;12.960;2023-04-25T10:15:21;96098.91;;;15.00;51.53
70434;BME280;57876;47.792;12.960;2023-04-25T10:17:47;96099.34;;;15.02;51.57
70434;BME280;57876;47.792;12.960;2023-04-25T10:20:12;96095.34;;;15.00;51.57
70434;BME280;57876;47.792;12.960;2023-04-25T10:22:47;96096.97;;;15.01;51.44
70434;BME280;57876;47.792;12.960;2023-04-25T10:25:12;96094.09;;;14.97;51.52
70434;BME280;57876;47.792;12.960;2023-04-25T10:27:38;96098.09;;;15.00;51.68
70434;BME280;57876;47.792;12.960;2023-04-25T10:30:16;96100.00;;;14.99;51.69
70434;BME280;57876;47.792;12.960;2023-04-25T10:32:44;96094.56;;;14.99;51.74
70434;BME280;57876;47.792;12.960;2023-04-25T10:35:23;96090.56;;;14.96;51.63
70434;BME280;57876;47.792;12.960;2023-04-25T10:38:04;96091.38;;;14.97;51.56
70434;BME280;57876;47.792;12.960;2023-04-25T10:40:29;96085.47;;;14.95;51.38
70434;BME280;57876;47.792;12.960;2023-04-25T10:42:54;96091.38;;;14.97;51.70
70434;BME280;57876;47.792;12.960;2023-04-25T10:45:22;96076.50;;;14.94;51.66
70434;BME280;57876;47.792;12.960;2023-04-25T10:47:46;96082.09;;;14.98;51.64
70434;BME280;57876;47.792;12.960;2023-04-25T10:50:11;96079.03;;;15.00;51.35
70434;BME280;57876;47.792;12.960;2023-04-25T10:52:40;96082.22;;;15.02;51.43
70434;BME280;57876;47.792;12.960;2023-04-25T10:55:05;96080.63;;;15.01;51.80
70434;BME280;57876;47.792;12.960;2023-04-25T10:57:37;96069.88;;;15.04;51.39
70434;BME280;57876;47.792;12.960;2023-04-25T11:02:37;96069.75;;;15.01;51.76
70434;BME280;57876;47.792;12.960;2023-04-25T11:05:02;96062.25;;;14.97;51.73
70434;BME280;57876;47.792;12.960;2023-04-25T11:07:50;96065.75;;;14.98;51.40
70434;BME280;57876;47.792;12.960;2023-04-25T11:10:16;96077.75;;;14.97;51.67
70434;BME280;57876;47.792;12.960;2023-04-25T11:12:45;96074.59;;;14.95;51.57
70434;BME280;57876;47.792;12.960;2023-04-25T11:15:10;96090.56;;;14.96;51.52
70434;BME280;57876;47.792;12.960;2023-04-25T11:17:34;96092.03;;;14.94;51.41
70434;BME280;57876;47.792;12.960;2023-04-25T11:19:59;96095.09;;;14.92;51.58
70434;BME280;57876;47.792;12.960;2023-04-25T11:22:24;96100.38;;;14.89;51.77
70434;BME280;57876;47.792;12.960;2023-04-25T11:24:48;96128.09;;;14.91;51.82
70434;BME280;57876;47.792;12.960;2023-04-25T11:27:15;96130.50;;;14.92;51.82
70434;BME280;57876;47.792;12.960;2023-04-25T11:29:43;96118.34;;;14.90;51.51
70434;BME280;57876;47.792;12.960;2023-04-25T11:32:07;96129.22;;;14.90;51.33
70434;BME280;57876;47.792;12.960;2023-04-25T11:34:32;96122.34;;;14.92;51.68
70434;BME280;57876;47.792;12.960;2023-04-25T11:36:57;96109.50;;;14.93;51.39
70434;BME280;57876;47.792;12.960;2023-04-25T11:39:26;96107.25;;;14.95;51.67
70434;BME280;57876;47.792;12.960;2023-04-25T11:41:51;96099.09;;;14.95;51.37
70434;BME280;57876;47.792;12.960;2023-04-25T11:44:19;96106.13;;;14.96;51.60
70434;BME280;57876;47.792;12.960;2023-04-25T11:46:44;96094.91;;;14.97;51.49
70434;BME280;57876;47.792;12.960;2023-04-25T11:49:09;96104.66;;;14.98;51.58
70434;BME280;57876;47.792;12.960;2023-04-25T11:51:44;96106.13;;;14.96;51.35
70434;BME280;57876;47.792;12.960;2023-04-25T11:54:12;96103.88;;;14.98;51.32
70434;BME280;57876;47.792;12.960;2023-04-25T11:56:37;96098.75;;;14.96;51.53
70434;BME280;57876;47.792;12.960;2023-04-25T11:59:08;96110.91;;;14.99;51.30
70434;BME280;57876;47.792;12.960;2023-04-25T12:03:58;96110.91;;;14.99;51.32
70434;BME280;57876;47.792;12.960;2023-04-25T12:06:28;96104.53;;;14.95;51.52
70434;BME280;57876;47.792;12.960;2023-04-25T12:09:31;96104.19;;;14.96;51.55
70434;BME280;57876;47.792;12.960;2023-04-25T12:12:02;96098.75;;;14.96;51.36
70434;BME280;57876;47.792;12.960;2023-04-25T12:14:31;96098.28;;;14.94;51.40
70434;BME280;57876;47.792;12.960;2023-04-25T12:17:01;96097.47;;;14.94;51.40
70434;BME280;57876;47.792;12.960;2023-04-25T12:19:26;96080.66;;;14.92;51.32
70434;BME280;57876;47.792;12.960;2023-04-25T12:21:56;96091.25;;;14.93;51.47
70434;BME280;57876;47.792;12.960;2023-04-25T12:24:25;96081.94;;;14.94;51.76
70434;BME280;57876;47.792;12.960;2023-04-25T12:27:04;96080.81;;;14.95;51.36
70434;BME280;57876;47.792;12.960;2023-04-25T12:29:33;96084.34;;;14.96;51.15
70434;BME280;57876;47.792;12.960;2023-04-25T12:31:58;96092.19;;;14.97;51.36
70434;BME280;57876;47.792;12.960;2023-04-25T12:34:23;96090.56;;;14.96;51.53
70434;BME280;57876;47.792;12.960;2023-04-25T12:36:52;96086.75;;;14.97;51.35
70434;BME280;57876;47.792;12.960;2023-04-25T12:39:21;96085.47;;;14.95;51.38
70434;BME280;57876;47.792;12.960;2023-04-25T12:41:46;96076.97;;;14.96;51.34
70434;BME280;57876;47.792;12.960;2023-04-25T12:44:13;96076.16;;;14.96;51.39
70434;BME280;57876;47.792;12.960;2023-04-25T12:46:39;96089.78;;;14.96;51.28
70434;BME280;57876;47.792;12.960;2023-04-25T12:49:04;96088.19;;;14.95;51.29